createdAt,value
2022-09-04T00:02:18.119Z,13.40
2022-09-04T00:05:17.266Z,10.35
2022-09-04T00:08:10.829Z,13.32
2022-09-04T00:10:58.880Z,10.43
2022-09-04T00:13:35.562Z,11.38
2022-09-04T00:16:31.173Z,10.95
2022-09-04T00:19:39.210Z,10.68
2022-09-04T00:22:40.774Z,10.60
2022-09-04T00:25:18.847Z,11.60
2022-09-04T00:27:58.209Z,12.52
2022-09-04T00:30:32.460Z,12.48
2022-09-04T00:33:17.186Z,11.70
2022-09-04T00:35:57.363Z,11.38
2022-09-04T00:38:53.008Z,12.07
2022-09-04T00:41:33.150Z,12.40
2022-09-04T00:45:16.530Z,11.13
2022-09-04T00:48:41.849Z,11.40
2022-09-04T00:51:38.789Z,11.35
2022-09-04T00:54:49.326Z,12.45
2022-09-04T00:58:11.661Z,11.13
2022-09-04T01:00:45.359Z,14.32
2022-09-04T01:04:12.752Z,12.50
2022-09-04T01:07:26.781Z,12.00
2022-09-04T01:10:56.826Z,11.32
2022-09-04T01:16:37.917Z,12.60
2022-09-04T01:19:34.500Z,11.80
2022-09-04T01:22:49.375Z,12.38
2022-09-04T01:26:01.240Z,13.85
2022-09-04T01:28:45.560Z,13.57
2022-09-04T01:31:31.853Z,13.43
2022-09-04T01:34:32.147Z,14.07
2022-09-04T01:37:13.699Z,13.52
2022-09-04T01:39:50.701Z,13.30
2022-09-04T01:42:42.081Z,13.77
2022-09-04T01:45:16.321Z,13.90
2022-09-04T01:47:53.253Z,14.60
2022-09-04T01:50:32.102Z,14.38
2022-09-04T01:53:11.741Z,14.50
2022-09-04T01:55:54.059Z,14.65
2022-09-04T01:58:43.582Z,14.93
2022-09-04T02:01:27.095Z,13.85
2022-09-04T02:04:09.258Z,14.13
2022-09-04T02:06:48.631Z,14.48
2022-09-04T02:09:40.155Z,14.25
2022-09-04T02:12:27.484Z,13.77
2022-09-04T02:15:08.338Z,13.63
2022-09-04T02:17:47.331Z,14.00
2022-09-04T02:20:26.590Z,14.05
2022-09-04T02:23:12.274Z,13.35
2022-09-04T02:28:50.418Z,14.40
2022-09-04T02:31:31.839Z,13.98
2022-09-04T02:34:10.587Z,14.57
2022-09-04T02:36:54.568Z,14.75
2022-09-04T02:39:47.628Z,14.25
2022-09-04T02:42:32.397Z,15.75
2022-09-04T02:45:20.227Z,15.38
2022-09-04T02:48:00.975Z,14.93
2022-09-04T02:51:05.547Z,15.70
2022-09-04T02:57:20.484Z,15.80
2022-09-04T03:00:26.028Z,16.58
2022-09-04T03:03:41.597Z,17.17
2022-09-04T03:06:26.242Z,17.10
2022-09-04T03:09:13.644Z,16.80
2022-09-04T03:12:08.650Z,17.65
2022-09-04T03:14:50.925Z,18.27
2022-09-04T03:17:35.817Z,18.05
2022-09-04T03:20:33.137Z,18.13
2022-09-04T03:23:26.088Z,18.23
2022-09-04T03:26:41.201Z,18.40
2022-09-04T03:29:36.562Z,19.35
2022-09-04T03:32:29.070Z,19.42
2022-09-04T03:35:07.949Z,19.67
2022-09-04T03:38:14.658Z,19.35
2022-09-04T03:44:28.055Z,20.33
2022-09-04T03:47:16.171Z,20.88
2022-09-04T03:53:34.187Z,21.13
2022-09-04T03:56:40.609Z,22.05
2022-09-04T03:59:23.162Z,22.75
2022-09-04T04:05:48.802Z,22.50
2022-09-04T04:09:48.890Z,22.58
2022-09-04T04:13:05.742Z,22.52
2022-09-04T04:19:27.508Z,21.65
2022-09-04T04:26:28.893Z,23.13
2022-09-04T04:30:15.530Z,22.17
2022-09-04T04:33:44.506Z,21.88
2022-09-04T04:37:25.842Z,24.98
2022-09-04T04:47:42.677Z,26.25
2022-09-04T04:50:56.022Z,24.95
2022-09-04T04:53:59.617Z,25.55
2022-09-04T04:57:01.038Z,26.50
2022-09-04T05:00:27.667Z,25.02
2022-09-04T05:19:35.119Z,25.20
2022-09-04T05:23:17.775Z,25.95
2022-09-04T05:34:13.231Z,26.35
2022-09-04T05:38:25.779Z,26.60
2022-09-04T05:48:24.690Z,27.08
2022-09-04T05:52:03.155Z,27.02
2022-09-04T05:55:11.620Z,25.08
2022-09-04T05:58:07.193Z,27.95
2022-09-04T06:01:25.504Z,27.95
2022-09-04T06:04:36.487Z,28.67
2022-09-04T06:08:06.378Z,28.13
2022-09-04T06:11:02.191Z,27.48
2022-09-04T06:17:59.072Z,27.88
2022-09-04T06:20:44.770Z,28.33
2022-09-04T06:24:09.251Z,26.90
2022-09-04T06:27:02.708Z,27.95
2022-09-04T06:30:03.506Z,27.70
2022-09-04T06:33:17.218Z,27.52
2022-09-04T06:36:17.894Z,27.95
2022-09-04T06:39:12.609Z,27.27
2022-09-04T06:42:05.144Z,28.35
2022-09-04T06:44:49.085Z,28.02
2022-09-04T06:47:29.474Z,27.95
2022-09-04T06:50:22.923Z,29.50
2022-09-04T06:53:11.276Z,30.80
2022-09-04T06:56:04.927Z,30.88
2022-09-04T06:59:19.797Z,30.52
2022-09-04T07:02:04.619Z,30.35
2022-09-04T07:04:53.197Z,31.23
2022-09-04T07:07:30.666Z,32.15
2022-09-04T07:10:10.655Z,32.08
2022-09-04T07:13:24.709Z,31.08
2022-09-04T07:16:22.638Z,33.50
2022-09-04T07:19:50.095Z,28.70
2022-09-04T07:22:39.585Z,27.02
2022-09-04T07:25:26.237Z,27.88
2022-09-04T07:32:57.536Z,28.20
2022-09-04T07:38:43.888Z,30.38
2022-09-04T07:41:37.862Z,33.17
2022-09-04T07:44:15.638Z,34.83
2022-09-04T07:46:53.338Z,34.22
2022-09-04T07:49:31.666Z,32.97
2022-09-04T07:52:13.308Z,33.10
2022-09-04T07:55:17.205Z,34.50
2022-09-04T07:58:31.702Z,33.35
2022-09-04T08:01:32.145Z,32.42
2022-09-04T08:04:44.503Z,30.45
2022-09-04T08:07:24.806Z,30.70
2022-09-04T08:10:18.129Z,32.88
2022-09-04T08:13:15.118Z,32.97
2022-09-04T08:15:47.411Z,32.22
2022-09-04T08:18:35.424Z,31.67
2022-09-04T08:21:19.205Z,33.63
2022-09-04T08:24:22.704Z,30.10
2022-09-04T08:27:09.314Z,32.92
2022-09-04T08:29:57.384Z,31.70
2022-09-04T08:33:17.041Z,32.78
2022-09-04T08:35:56.094Z,32.35
2022-09-04T08:39:06.889Z,33.03
2022-09-04T08:42:31.623Z,30.60
2022-09-04T08:45:55.300Z,33.28
2022-09-04T08:49:19.692Z,33.88
2022-09-04T08:52:47.518Z,33.97
2022-09-04T08:56:18.564Z,35.30
2022-09-04T08:59:45.828Z,32.53
2022-09-04T09:03:17.713Z,35.10
2022-09-04T09:06:16.294Z,35.70
2022-09-04T09:09:32.253Z,35.80
2022-09-04T09:12:41.494Z,34.05
2022-09-04T09:15:35.514Z,38.03
2022-09-04T09:18:08.436Z,38.42
2022-09-04T09:20:48.637Z,45.40
2022-09-04T09:23:20.564Z,39.88
2022-09-04T09:26:06.789Z,43.65
2022-09-04T09:29:31.049Z,46.55
2022-09-04T09:32:45.554Z,44.08
2022-09-04T09:35:55.780Z,45.22
2022-09-04T09:38:51.280Z,46.75
2022-09-04T09:41:48.141Z,48.75
2022-09-04T09:45:16.447Z,50.20
2022-09-04T09:48:48.700Z,47.47
2022-09-04T09:51:42.429Z,53.75
2022-09-04T09:55:05.442Z,50.92
2022-09-04T09:58:39.229Z,43.97
2022-09-04T10:01:33.320Z,51.38
2022-09-04T10:04:55.907Z,45.15
2022-09-04T10:08:04.851Z,55.35
2022-09-04T10:11:02.404Z,55.88
2022-09-04T10:14:41.800Z,43.15
2022-09-04T10:18:11.233Z,44.60
2022-09-04T10:21:29.344Z,45.60
2022-09-04T10:24:42.178Z,44.17
2022-09-04T10:28:15.018Z,41.65
2022-09-04T10:31:25.690Z,36.40
2022-09-04T10:34:13.619Z,27.60
2022-09-04T10:36:55.109Z,32.03
2022-09-04T10:39:53.447Z,28.65
2022-09-04T10:42:41.272Z,30.38
2022-09-04T10:45:22.699Z,32.20
2022-09-04T10:48:48.259Z,31.92
2022-09-04T10:51:40.285Z,32.22
2022-09-04T10:55:02.781Z,27.23
2022-09-04T10:57:55.858Z,25.52
2022-09-04T11:00:31.147Z,27.25
2022-09-04T11:03:53.839Z,33.50
2022-09-04T11:07:30.345Z,25.13
2022-09-04T11:10:33.168Z,22.17
2022-09-04T11:13:57.708Z,29.15
2022-09-04T11:17:16.536Z,24.77
2022-09-04T11:20:18.506Z,25.95
2022-09-04T11:23:48.705Z,30.65
2022-09-04T11:27:13.592Z,21.15
2022-09-04T11:29:59.318Z,21.35
2022-09-04T11:32:54.104Z,17.80
2022-09-04T11:35:56.813Z,17.75
2022-09-04T11:39:09.476Z,23.30
2022-09-04T11:42:30.456Z,25.48
2022-09-04T11:45:24.479Z,23.55
2022-09-04T11:48:28.190Z,21.23
2022-09-04T11:51:52.826Z,17.13
2022-09-04T11:54:50.005Z,17.65
2022-09-04T11:57:32.787Z,23.42
2022-09-04T12:00:12.582Z,19.70
2022-09-04T12:03:08.797Z,13.65
2022-09-04T12:06:10.563Z,17.02
2022-09-04T12:09:15.735Z,19.70
2022-09-04T12:12:17.012Z,23.13
2022-09-04T12:15:11.334Z,15.77
2022-09-04T12:18:11.037Z,15.38
2022-09-04T12:21:25.466Z,18.40
2022-09-04T12:24:39.598Z,12.07
2022-09-04T12:27:59.061Z,18.50
2022-09-04T12:30:42.201Z,16.58
2022-09-04T12:34:04.609Z,14.95
2022-09-04T12:37:19.932Z,12.73
2022-09-04T12:40:35.815Z,18.80
2022-09-04T12:43:28.876Z,13.18
2022-09-04T12:46:14.639Z,15.40
2022-09-04T12:48:57.200Z,13.27
2022-09-04T12:51:30.252Z,13.77
2022-09-04T12:54:23.226Z,12.85
2022-09-04T12:57:08.173Z,13.68
2022-09-04T13:00:04.745Z,14.68
2022-09-04T13:03:04.894Z,12.75
2022-09-04T13:06:04.258Z,11.55
2022-09-04T13:08:48.836Z,10.23
2022-09-04T13:11:30.258Z,9.25
2022-09-04T13:14:21.032Z,10.15
2022-09-04T13:16:58.576Z,11.75
2022-09-04T13:19:39.321Z,9.98
2022-09-04T13:22:20.138Z,9.18
2022-09-04T13:25:02.718Z,9.43
2022-09-04T13:27:51.661Z,8.43
2022-09-04T13:30:24.433Z,9.98
2022-09-04T13:33:16.705Z,9.65
2022-09-04T13:36:11.419Z,7.30
2022-09-04T13:39:38.381Z,8.18
2022-09-04T13:42:37.817Z,10.25
2022-09-04T13:45:11.776Z,11.27
2022-09-04T13:47:49.786Z,7.80
2022-09-04T13:50:25.889Z,9.00
2022-09-04T13:52:59.950Z,6.35
2022-09-04T13:55:34.784Z,7.22
2022-09-04T13:58:11.560Z,9.35
2022-09-04T14:00:46.329Z,8.15
2022-09-04T14:03:28.798Z,6.90
2022-09-04T14:05:57.388Z,7.53
2022-09-04T14:08:31.353Z,5.28
2022-09-04T14:11:39.447Z,6.82
2022-09-04T14:15:07.667Z,6.03
2022-09-04T14:17:44.556Z,8.07
2022-09-04T14:20:22.471Z,6.07
2022-09-04T14:23:05.406Z,8.45
2022-09-04T14:25:41.829Z,6.45
2022-09-04T14:28:20.451Z,7.95
2022-09-04T14:31:10.466Z,6.22
2022-09-04T14:33:53.493Z,5.57
2022-09-04T14:36:34.316Z,6.25
2022-09-04T14:39:17.015Z,5.88
2022-09-04T14:42:16.287Z,4.35
2022-09-04T14:45:13.228Z,5.45
2022-09-04T14:47:47.369Z,6.00
2022-09-04T14:50:19.292Z,4.10
2022-09-04T14:52:50.821Z,4.50
2022-09-04T14:55:27.357Z,4.57
2022-09-04T14:58:04.962Z,4.30
2022-09-04T15:00:36.883Z,6.57
2022-09-04T15:03:13.330Z,5.68
2022-09-04T15:05:51.657Z,9.00
2022-09-04T15:08:29.378Z,5.00
2022-09-04T15:11:00.760Z,3.45
2022-09-04T15:13:59.924Z,5.40
2022-09-04T15:16:44.296Z,4.47
2022-09-04T15:19:33.863Z,5.72
2022-09-04T15:22:09.729Z,3.83
2022-09-04T15:24:50.946Z,4.82
2022-09-04T15:27:28.571Z,7.50
2022-09-04T15:30:06.993Z,4.13
2022-09-04T15:32:39.847Z,4.93
2022-09-04T15:35:32.824Z,6.57
2022-09-04T15:38:21.038Z,9.38
2022-09-04T15:41:16.136Z,6.07
2022-09-04T15:43:51.709Z,4.18
2022-09-04T15:46:29.974Z,3.58
2022-09-04T15:49:17.267Z,5.30
2022-09-04T15:51:55.016Z,6.05
2022-09-04T15:54:31.794Z,4.75
2022-09-04T15:57:09.062Z,5.30
2022-09-04T15:59:50.451Z,5.88
2022-09-04T16:02:37.291Z,5.10
2022-09-04T16:05:19.479Z,7.00
2022-09-04T16:08:03.193Z,7.07
2022-09-04T16:10:59.156Z,5.22
2022-09-04T16:13:44.583Z,8.25
2022-09-04T16:16:18.861Z,5.40
2022-09-04T16:18:59.101Z,5.50
2022-09-04T16:21:40.681Z,5.30
2022-09-04T16:24:14.195Z,5.30
2022-09-04T16:26:47.694Z,3.00
2022-09-04T16:29:29.657Z,4.47
2022-09-04T16:31:59.896Z,9.13
2022-09-04T16:34:35.481Z,5.97
2022-09-04T16:37:13.255Z,5.53
2022-09-04T16:39:56.699Z,5.38
2022-09-04T16:42:32.130Z,7.10
2022-09-04T16:45:13.672Z,5.35
2022-09-04T16:47:50.421Z,4.75
2022-09-04T16:50:28.209Z,4.10
2022-09-04T16:53:14.381Z,4.95
2022-09-04T16:55:54.760Z,4.20
2022-09-04T16:58:54.683Z,5.00
2022-09-04T17:01:29.790Z,3.80
2022-09-04T17:04:23.175Z,6.40
2022-09-04T17:07:09.791Z,4.82
2022-09-04T17:10:08.886Z,5.40
2022-09-04T17:12:49.373Z,3.53
2022-09-04T17:15:29.605Z,3.20
2022-09-04T17:18:01.665Z,5.40
2022-09-04T17:24:54.340Z,5.05
2022-09-04T17:28:59.946Z,4.93
2022-09-04T17:29:00.734Z,8.30
2022-09-04T17:29:39.474Z,5.20
2022-09-04T17:33:22.614Z,8.38
2022-09-04T17:40:38.517Z,5.30
2022-09-04T17:40:42.494Z,11.48
2022-09-04T17:41:47.375Z,4.15
2022-09-04T17:44:46.801Z,6.63
2022-09-04T17:47:35.630Z,8.18
2022-09-04T17:50:11.614Z,5.70
2022-09-04T17:52:58.971Z,13.65
2022-09-04T17:55:30.759Z,6.63
2022-09-04T17:58:16.601Z,5.68
2022-09-04T18:01:15.538Z,6.82
2022-09-04T18:04:20.794Z,4.53
2022-09-04T18:06:58.219Z,6.47
2022-09-04T18:09:34.209Z,6.88
2022-09-04T18:12:13.114Z,4.07
2022-09-04T18:15:27.638Z,6.75
2022-09-04T18:18:02.288Z,5.30
2022-09-04T18:20:37.771Z,7.88
2022-09-04T18:23:56.692Z,5.10
2022-09-04T18:26:40.653Z,4.45
2022-09-04T18:32:21.668Z,9.25
2022-09-04T18:37:10.140Z,5.25
2022-09-04T18:37:24.927Z,7.80
2022-09-04T18:38:37.101Z,4.95
2022-09-04T18:45:14.931Z,4.05
2022-09-04T18:50:20.738Z,4.88
2022-09-04T18:50:30.450Z,5.22
2022-09-04T18:50:48.950Z,6.32
2022-09-04T18:53:07.540Z,4.28
2022-09-04T18:55:44.953Z,5.50
2022-09-04T18:58:39.988Z,7.47
2022-09-04T19:01:16.980Z,12.85
2022-09-04T19:03:58.918Z,5.43
2022-09-04T19:06:35.395Z,7.50
2022-09-04T19:09:13.099Z,6.40
2022-09-04T19:11:48.743Z,5.72
2022-09-04T19:14:20.792Z,6.43
2022-09-04T19:16:53.167Z,6.47
2022-09-04T19:19:27.228Z,5.43
2022-09-04T19:22:05.283Z,5.43
2022-09-04T19:24:38.300Z,6.18
2022-09-04T19:27:27.485Z,6.10
2022-09-04T19:30:18.764Z,4.75
2022-09-04T19:33:19.172Z,6.40
2022-09-04T19:35:53.842Z,5.22
2022-09-04T19:44:17.973Z,9.00
2022-09-04T19:45:54.167Z,6.57
2022-09-04T19:46:11.159Z,7.35
2022-09-04T19:47:29.866Z,6.20
2022-09-04T19:53:20.386Z,7.63
2022-09-04T19:53:31.359Z,6.10
2022-09-04T19:56:11.224Z,5.43
2022-09-04T19:58:42.055Z,5.10
2022-09-04T20:01:17.357Z,7.60
2022-09-04T20:03:51.937Z,8.48
2022-09-04T20:06:25.744Z,7.53
2022-09-04T20:09:02.322Z,8.07
2022-09-04T20:11:36.624Z,7.15
2022-09-04T20:14:14.889Z,10.70
2022-09-04T20:17:01.378Z,8.82
2022-09-04T20:28:39.209Z,6.65
2022-09-04T20:35:54.330Z,6.40
2022-09-04T20:42:27.917Z,5.28
2022-09-04T21:03:19.368Z,6.28
2022-09-04T21:03:20.468Z,5.90
2022-09-04T21:06:07.707Z,5.03
2022-09-04T21:08:48.456Z,5.53
2022-09-04T21:11:39.226Z,6.20
2022-09-04T21:14:18.223Z,6.55
2022-09-04T21:17:33.700Z,6.80
2022-09-04T21:20:59.538Z,8.02
2022-09-04T21:24:07.012Z,6.50
2022-09-04T21:27:04.441Z,7.72
2022-09-04T21:30:09.679Z,7.05
2022-09-04T21:33:27.245Z,7.38
2022-09-04T21:36:34.444Z,7.70
2022-09-04T21:39:41.320Z,6.85
2022-09-04T21:42:47.833Z,6.85
2022-09-04T21:45:40.301Z,6.45
2022-09-04T21:48:36.772Z,8.57
2022-09-04T21:51:36.924Z,7.68
2022-09-04T22:02:29.348Z,8.25
